sensor_id;sensor_type;location;lat;lon;timestamp;temperature;humidity
11497;DHT22;5805;51.542;7.230;2023-02-28T00:01:41;2.80;99.90
11497;DHT22;5805;51.542;7.230;2023-02-28T00:04:07;2.80;99.90
11497;DHT22;5805;51.542;7.230;2023-02-28T00:06:32;2.70;99.90
11497;DHT22;5805;51.542;7.230;2023-02-28T00:08:58;2.70;99.90
11497;DHT22;5805;51.542;7.230;2023-02-28T00:11:23;2.80;99.90
11497;DHT22;5805;51.542;7.230;2023-02-28T00:13:51;2.80;99.90
11497;DHT22;5805;51.542;7.230;2023-02-28T00:16:18;2.70;99.90
11497;DHT22;5805;51.542;7.230;2023-02-28T00:18:45;2.90;99.90
11497;DHT22;5805;51.542;7.230;2023-02-28T00:21:11;2.60;99.90
11497;DHT22;5805;51.542;7.230;2023-02-28T00:23:36;2.50;99.90
11497;DHT22;5805;51.542;7.230;2023-02-28T00:26:02;2.60;99.90
11497;DHT22;5805;51.542;7.230;2023-02-28T00:28:28;2.50;99.90
11497;DHT22;5805;51.542;7.230;2023-02-28T00:30:55;2.60;99.90
11497;DHT22;5805;51.542;7.230;2023-02-28T00:33:21;2.50;99.90
11497;DHT22;5805;51.542;7.230;2023-02-28T00:35:46;2.50;99.90
11497;DHT22;5805;51.542;7.230;2023-02-28T00:38:12;2.50;99.90
11497;DHT22;5805;51.542;7.230;2023-02-28T00:40:38;2.40;99.90
11497;DHT22;5805;51.542;7.230;2023-02-28T00:43:04;2.80;99.90
11497;DHT22;5805;51.542;7.230;2023-02-28T00:45:29;2.50;99.90
11497;DHT22;5805;51.542;7.230;2023-02-28T00:47:57;3.40;99.90
11497;DHT22;5805;51.542;7.230;2023-02-28T00:50:22;2.40;99.90
11497;DHT22;5805;51.542;7.230;2023-02-28T00:52:52;2.50;99.90
11497;DHT22;5805;51.542;7.230;2023-02-28T00:55:18;2.40;99.90
11497;DHT22;5805;51.542;7.230;2023-02-28T00:57:44;2.40;99.90
11497;DHT22;5805;51.542;7.230;2023-02-28T01:00:10;2.30;99.90
11497;DHT22;5805;51.542;7.230;2023-02-28T01:02:36;2.30;99.90
11497;DHT22;5805;51.542;7.230;2023-02-28T01:05:04;2.70;99.90
11497;DHT22;5805;51.542;7.230;2023-02-28T01:07:30;2.30;99.90
11497;DHT22;5805;51.542;7.230;2023-02-28T01:09:56;3.40;99.90
11497;DHT22;5805;51.542;7.230;2023-02-28T01:12:22;2.40;99.90
11497;DHT22;5805;51.542;7.230;2023-02-28T01:14:51;2.40;99.90
11497;DHT22;5805;51.542;7.230;2023-02-28T01:17:16;2.30;99.90
11497;DHT22;5805;51.542;7.230;2023-02-28T01:19:42;2.40;99.90
11497;DHT22;5805;51.542;7.230;2023-02-28T01:22:10;2.30;99.90
11497;DHT22;5805;51.542;7.230;2023-02-28T01:24:35;3.40;99.90
11497;DHT22;5805;51.542;7.230;2023-02-28T01:27:02;3.30;99.90
11497;DHT22;5805;51.542;7.230;2023-02-28T01:29:28;2.30;99.90
11497;DHT22;5805;51.542;7.230;2023-02-28T01:31:54;2.30;99.90
11497;DHT22;5805;51.542;7.230;2023-02-28T01:34:19;2.30;99.90
11497;DHT22;5805;51.542;7.230;2023-02-28T01:36:45;2.40;99.90
11497;DHT22;5805;51.542;7.230;2023-02-28T01:39:12;2.40;99.90
11497;DHT22;5805;51.542;7.230;2023-02-28T01:41:38;2.40;99.90
11497;DHT22;5805;51.542;7.230;2023-02-28T01:44:06;2.40;99.90
11497;DHT22;5805;51.542;7.230;2023-02-28T01:46:33;2.50;99.90
11497;DHT22;5805;51.542;7.230;2023-02-28T01:49:04;2.40;99.90
11497;DHT22;5805;51.542;7.230;2023-02-28T01:51:33;2.40;99.90
11497;DHT22;5805;51.542;7.230;2023-02-28T01:54:02;2.40;99.90
11497;DHT22;5805;51.542;7.230;2023-02-28T01:56:32;3.50;99.90
11497;DHT22;5805;51.542;7.230;2023-02-28T01:58:58;2.30;99.90
11497;DHT22;5805;51.542;7.230;2023-02-28T02:01:26;3.10;99.90
11497;DHT22;5805;51.542;7.230;2023-02-28T02:03:55;2.30;99.90
11497;DHT22;5805;51.542;7.230;2023-02-28T02:06:22;3.10;99.90
11497;DHT22;5805;51.542;7.230;2023-02-28T02:08:47;2.20;99.90
11497;DHT22;5805;51.542;7.230;2023-02-28T02:11:17;2.20;99.90
11497;DHT22;5805;51.542;7.230;2023-02-28T02:13:56;2.20;99.90
11497;DHT22;5805;51.542;7.230;2023-02-28T02:16:34;2.20;99.90
11497;DHT22;5805;51.542;7.230;2023-02-28T02:19:15;2.10;99.90
11497;DHT22;5805;51.542;7.230;2023-02-28T02:22:12;2.10;99.90
11497;DHT22;5805;51.542;7.230;2023-02-28T02:25:08;2.00;99.90
11497;DHT22;5805;51.542;7.230;2023-02-28T02:27:54;2.00;99.90
11497;DHT22;5805;51.542;7.230;2023-02-28T02:31:06;2.00;99.90
11497;DHT22;5805;51.542;7.230;2023-02-28T02:36:52;1.90;99.90
11497;DHT22;5805;51.542;7.230;2023-02-28T02:39:29;1.80;99.90
11497;DHT22;5805;51.542;7.230;2023-02-28T02:42:00;1.80;99.90
11497;DHT22;5805;51.542;7.230;2023-02-28T02:44:30;1.80;99.90
11497;DHT22;5805;51.542;7.230;2023-02-28T02:47:01;1.80;99.90
11497;DHT22;5805;51.542;7.230;2023-02-28T02:49:31;1.70;99.90
11497;DHT22;5805;51.542;7.230;2023-02-28T02:52:03;1.70;99.90
11497;DHT22;5805;51.542;7.230;2023-02-28T02:54:32;1.80;99.90
11497;DHT22;5805;51.542;7.230;2023-02-28T02:57:01;1.70;99.90
11497;DHT22;5805;51.542;7.230;2023-02-28T02:59:29;1.70;99.90
11497;DHT22;5805;51.542;7.230;2023-02-28T03:01:57;1.80;99.90
11497;DHT22;5805;51.542;7.230;2023-02-28T03:04:24;1.80;99.90
11497;DHT22;5805;51.542;7.230;2023-02-28T03:06:52;1.80;99.90
11497;DHT22;5805;51.542;7.230;2023-02-28T03:09:24;1.80;99.90
11497;DHT22;5805;51.542;7.230;2023-02-28T03:11:51;1.80;99.90
11497;DHT22;5805;51.542;7.230;2023-02-28T03:14:37;1.80;99.90
11497;DHT22;5805;51.542;7.230;2023-02-28T03:17:21;1.80;99.90
11497;DHT22;5805;51.542;7.230;2023-02-28T03:19:58;1.80;99.90
11497;DHT22;5805;51.542;7.230;2023-02-28T03:22:40;1.80;99.90
11497;DHT22;5805;51.542;7.230;2023-02-28T03:25:18;1.80;99.90
11497;DHT22;5805;51.542;7.230;2023-02-28T03:27:52;1.80;99.90
11497;DHT22;5805;51.542;7.230;2023-02-28T03:30:26;1.80;99.90
11497;DHT22;5805;51.542;7.230;2023-02-28T03:32:57;1.80;99.90
11497;DHT22;5805;51.542;7.230;2023-02-28T03:35:26;1.80;99.90
11497;DHT22;5805;51.542;7.230;2023-02-28T03:37:58;1.80;99.90
11497;DHT22;5805;51.542;7.230;2023-02-28T03:40:31;1.80;99.90
11497;DHT22;5805;51.542;7.230;2023-02-28T03:42:59;1.70;99.90
11497;DHT22;5805;51.542;7.230;2023-02-28T03:45:29;1.70;99.90
11497;DHT22;5805;51.542;7.230;2023-02-28T03:47:59;1.70;99.90
11497;DHT22;5805;51.542;7.230;2023-02-28T03:50:29;1.60;99.90
11497;DHT22;5805;51.542;7.230;2023-02-28T03:53:01;1.60;99.90
11497;DHT22;5805;51.542;7.230;2023-02-28T03:55:32;3.00;99.90
11497;DHT22;5805;51.542;7.230;2023-02-28T03:58:04;2.40;99.90
11497;DHT22;5805;51.542;7.230;2023-02-28T04:00:34;1.60;99.90
11497;DHT22;5805;51.542;7.230;2023-02-28T04:03:01;1.60;99.90
11497;DHT22;5805;51.542;7.230;2023-02-28T04:05:27;1.60;99.90
11497;DHT22;5805;51.542;7.230;2023-02-28T04:07:53;1.50;99.90
11497;DHT22;5805;51.542;7.230;2023-02-28T04:10:18;1.50;99.90
11497;DHT22;5805;51.542;7.230;2023-02-28T04:12:46;1.50;99.90
11497;DHT22;5805;51.542;7.230;2023-02-28T04:15:11;1.50;99.90
11497;DHT22;5805;51.542;7.230;2023-02-28T04:17:37;1.40;99.90
11497;DHT22;5805;51.542;7.230;2023-02-28T04:20:03;1.40;99.90
11497;DHT22;5805;51.542;7.230;2023-02-28T04:22:29;1.30;99.90
11497;DHT22;5805;51.542;7.230;2023-02-28T04:24:55;1.40;99.90
11497;DHT22;5805;51.542;7.230;2023-02-28T04:27:21;1.40;99.90
11497;DHT22;5805;51.542;7.230;2023-02-28T04:29:48;1.40;99.90
11497;DHT22;5805;51.542;7.230;2023-02-28T04:32:14;1.40;99.90
11497;DHT22;5805;51.542;7.230;2023-02-28T04:34:40;1.30;99.90
11497;DHT22;5805;51.542;7.230;2023-02-28T04:37:06;1.40;99.90
11497;DHT22;5805;51.542;7.230;2023-02-28T04:39:35;1.20;99.90
11497;DHT22;5805;51.542;7.230;2023-02-28T04:42:00;1.20;99.90
11497;DHT22;5805;51.542;7.230;2023-02-28T04:44:26;1.40;99.90
11497;DHT22;5805;51.542;7.230;2023-02-28T04:46:53;1.00;99.90
11497;DHT22;5805;51.542;7.230;2023-02-28T04:49:19;1.00;99.90
11497;DHT22;5805;51.542;7.230;2023-02-28T04:51:46;1.10;99.90
11497;DHT22;5805;51.542;7.230;2023-02-28T04:54:12;1.10;99.90
11497;DHT22;5805;51.542;7.230;2023-02-28T04:56:38;1.20;99.90
11497;DHT22;5805;51.542;7.230;2023-02-28T04:59:03;1.10;99.90
11497;DHT22;5805;51.542;7.230;2023-02-28T05:01:31;1.20;99.90
11497;DHT22;5805;51.542;7.230;2023-02-28T05:04:00;2.40;99.90
11497;DHT22;5805;51.542;7.230;2023-02-28T05:06:27;1.30;99.90
11497;DHT22;5805;51.542;7.230;2023-02-28T05:08:55;1.30;99.90
11497;DHT22;5805;51.542;7.230;2023-02-28T05:11:24;1.30;99.90
11497;DHT22;5805;51.542;7.230;2023-02-28T05:13:50;1.30;99.90
11497;DHT22;5805;51.542;7.230;2023-02-28T05:16:17;2.50;99.90
11497;DHT22;5805;51.542;7.230;2023-02-28T05:18:43;1.30;99.90
11497;DHT22;5805;51.542;7.230;2023-02-28T05:21:24;1.30;99.90
11497;DHT22;5805;51.542;7.230;2023-02-28T05:23:50;1.30;99.90
11497;DHT22;5805;51.542;7.230;2023-02-28T05:26:15;1.30;99.90
11497;DHT22;5805;51.542;7.230;2023-02-28T05:28:41;1.20;99.90
11497;DHT22;5805;51.542;7.230;2023-02-28T05:31:07;1.20;99.90
11497;DHT22;5805;51.542;7.230;2023-02-28T05:33:33;1.20;99.90
11497;DHT22;5805;51.542;7.230;2023-02-28T05:35:59;1.20;99.90
11497;DHT22;5805;51.542;7.230;2023-02-28T05:38:26;1.10;99.90
11497;DHT22;5805;51.542;7.230;2023-02-28T05:40:52;1.20;99.90
11497;DHT22;5805;51.542;7.230;2023-02-28T05:43:17;1.20;99.90
11497;DHT22;5805;51.542;7.230;2023-02-28T05:45:43;1.10;99.90
11497;DHT22;5805;51.542;7.230;2023-02-28T05:48:08;1.10;99.90
11497;DHT22;5805;51.542;7.230;2023-02-28T05:50:34;0.90;99.90
11497;DHT22;5805;51.542;7.230;2023-02-28T05:53:00;0.90;99.90
11497;DHT22;5805;51.542;7.230;2023-02-28T05:55:27;0.80;99.90
11497;DHT22;5805;51.542;7.230;2023-02-28T05:57:53;0.80;99.90
11497;DHT22;5805;51.542;7.230;2023-02-28T06:00:19;0.80;99.90
11497;DHT22;5805;51.542;7.230;2023-02-28T06:02:45;0.70;99.90
11497;DHT22;5805;51.542;7.230;2023-02-28T06:05:14;0.70;99.90
11497;DHT22;5805;51.542;7.230;2023-02-28T06:07:40;0.80;99.90
11497;DHT22;5805;51.542;7.230;2023-02-28T06:10:06;0.70;99.90
11497;DHT22;5805;51.542;7.230;2023-02-28T06:12:33;0.70;99.90
11497;DHT22;5805;51.542;7.230;2023-02-28T06:14:59;0.70;99.90
11497;DHT22;5805;51.542;7.230;2023-02-28T06:17:25;0.70;99.90
11497;DHT22;5805;51.542;7.230;2023-02-28T06:19:50;0.70;99.90
11497;DHT22;5805;51.542;7.230;2023-02-28T06:22:16;0.70;99.90
11497;DHT22;5805;51.542;7.230;2023-02-28T06:24:42;0.70;99.90
11497;DHT22;5805;51.542;7.230;2023-02-28T06:27:07;0.80;99.90
11497;DHT22;5805;51.542;7.230;2023-02-28T06:29:35;2.20;99.90
11497;DHT22;5805;51.542;7.230;2023-02-28T06:32:01;0.80;99.90
11497;DHT22;5805;51.542;7.230;2023-02-28T06:34:28;0.80;99.90
11497;DHT22;5805;51.542;7.230;2023-02-28T06:36:53;0.90;99.90
11497;DHT22;5805;51.542;7.230;2023-02-28T06:39:19;1.00;99.90
11497;DHT22;5805;51.542;7.230;2023-02-28T06:41:45;1.00;99.90
11497;DHT22;5805;51.542;7.230;2023-02-28T06:44:12;1.00;99.90
11497;DHT22;5805;51.542;7.230;2023-02-28T06:46:40;1.00;99.90
11497;DHT22;5805;51.542;7.230;2023-02-28T06:49:06;1.00;99.90
11497;DHT22;5805;51.542;7.230;2023-02-28T06:51:31;1.00;99.90
11497;DHT22;5805;51.542;7.230;2023-02-28T06:53:57;1.00;99.90
11497;DHT22;5805;51.542;7.230;2023-02-28T06:56:23;1.00;99.90
11497;DHT22;5805;51.542;7.230;2023-02-28T06:58:49;1.10;99.90
11497;DHT22;5805;51.542;7.230;2023-02-28T07:01:16;1.10;99.90
11497;DHT22;5805;51.542;7.230;2023-02-28T07:03:43;1.10;99.90
11497;DHT22;5805;51.542;7.230;2023-02-28T07:06:09;1.50;99.90
11497;DHT22;5805;51.542;7.230;2023-02-28T07:08:35;1.20;99.90
11497;DHT22;5805;51.542;7.230;2023-02-28T07:11:00;1.20;99.90
11497;DHT22;5805;51.542;7.230;2023-02-28T07:13:26;1.40;99.90
11497;DHT22;5805;51.542;7.230;2023-02-28T07:15:55;1.70;99.90
11497;DHT22;5805;51.542;7.230;2023-02-28T07:18:21;3.20;99.90
11497;DHT22;5805;51.542;7.230;2023-02-28T07:20:49;3.90;99.90
11497;DHT22;5805;51.542;7.230;2023-02-28T07:23:14;2.00;99.90
11497;DHT22;5805;51.542;7.230;2023-02-28T07:25:40;2.10;99.90
11497;DHT22;5805;51.542;7.230;2023-02-28T07:28:06;2.10;99.90
11497;DHT22;5805;51.542;7.230;2023-02-28T07:30:31;2.10;99.90
11497;DHT22;5805;51.542;7.230;2023-02-28T07:32:57;2.20;99.90
11497;DHT22;5805;51.542;7.230;2023-02-28T07:35:23;2.30;99.90
11497;DHT22;5805;51.542;7.230;2023-02-28T07:37:50;2.50;99.90
11497;DHT22;5805;51.542;7.230;2023-02-28T07:40:16;2.40;99.90
11497;DHT22;5805;51.542;7.230;2023-02-28T07:42:42;2.50;99.90
11497;DHT22;5805;51.542;7.230;2023-02-28T07:45:09;2.70;99.90
11497;DHT22;5805;51.542;7.230;2023-02-28T07:47:35;2.70;99.90
11497;DHT22;5805;51.542;7.230;2023-02-28T07:50:01;2.70;99.90
11497;DHT22;5805;51.542;7.230;2023-02-28T07:52:26;2.60;99.90
11497;DHT22;5805;51.542;7.230;2023-02-28T07:54:53;2.50;99.90
11497;DHT22;5805;51.542;7.230;2023-02-28T07:57:19;2.60;99.90
11497;DHT22;5805;51.542;7.230;2023-02-28T07:59:45;2.50;99.90
11497;DHT22;5805;51.542;7.230;2023-02-28T08:02:12;2.60;99.90
11497;DHT22;5805;51.542;7.230;2023-02-28T08:04:38;2.70;99.90
11497;DHT22;5805;51.542;7.230;2023-02-28T08:07:04;2.60;99.90
11497;DHT22;5805;51.542;7.230;2023-02-28T08:09:30;2.60;99.90
11497;DHT22;5805;51.542;7.230;2023-02-28T08:11:57;2.70;99.90
11497;DHT22;5805;51.542;7.230;2023-02-28T08:14:23;2.70;99.90
11497;DHT22;5805;51.542;7.230;2023-02-28T08:16:48;2.70;99.90
11497;DHT22;5805;51.542;7.230;2023-02-28T08:19:14;2.80;99.90
11497;DHT22;5805;51.542;7.230;2023-02-28T08:21:39;2.90;99.90
11497;DHT22;5805;51.542;7.230;2023-02-28T08:24:06;3.00;99.90
11497;DHT22;5805;51.542;7.230;2023-02-28T08:26:32;3.10;99.90
11497;DHT22;5805;51.542;7.230;2023-02-28T08:28:59;3.10;99.90
11497;DHT22;5805;51.542;7.230;2023-02-28T08:31:25;3.10;99.90
11497;DHT22;5805;51.542;7.230;2023-02-28T08:33:51;3.30;99.90
11497;DHT22;5805;51.542;7.230;2023-02-28T08:36:17;3.30;99.90
11497;DHT22;5805;51.542;7.230;2023-02-28T08:38:43;3.40;99.90
11497;DHT22;5805;51.542;7.230;2023-02-28T08:41:10;3.50;98.00
11497;DHT22;5805;51.542;7.230;2023-02-28T08:43:37;3.50;99.10
11497;DHT22;5805;51.542;7.230;2023-02-28T08:46:04;3.60;99.60
11497;DHT22;5805;51.542;7.230;2023-02-28T08:48:33;3.80;99.90
11497;DHT22;5805;51.542;7.230;2023-02-28T08:51:01;3.90;99.40
11497;DHT22;5805;51.542;7.230;2023-02-28T08:53:27;4.10;96.90
11497;DHT22;5805;51.542;7.230;2023-02-28T08:55:57;4.20;97.10
11497;DHT22;5805;51.542;7.230;2023-02-28T08:58:23;3.60;96.70
11497;DHT22;5805;51.542;7.230;2023-02-28T09:00:48;4.40;96.90
11497;DHT22;5805;51.542;7.230;2023-02-28T09:03:15;4.40;96.20
11497;DHT22;5805;51.542;7.230;2023-02-28T09:05:41;4.80;95.50
11497;DHT22;5805;51.542;7.230;2023-02-28T09:08:06;4.70;95.00
11497;DHT22;5805;51.542;7.230;2023-02-28T09:10:32;4.80;92.90
11497;DHT22;5805;51.542;7.230;2023-02-28T09:12:58;4.80;91.50
11497;DHT22;5805;51.542;7.230;2023-02-28T09:15:23;4.90;91.60
11497;DHT22;5805;51.542;7.230;2023-02-28T09:17:49;5.10;92.80
11497;DHT22;5805;51.542;7.230;2023-02-28T09:20:17;5.20;91.50
11497;DHT22;5805;51.542;7.230;2023-02-28T09:22:42;5.30;89.10
11497;DHT22;5805;51.542;7.230;2023-02-28T09:25:08;5.50;82.10
11497;DHT22;5805;51.542;7.230;2023-02-28T09:27:34;5.60;82.70
11497;DHT22;5805;51.542;7.230;2023-02-28T09:29:59;5.80;85.40
11497;DHT22;5805;51.542;7.230;2023-02-28T09:32:25;5.90;85.80
11497;DHT22;5805;51.542;7.230;2023-02-28T09:34:51;6.10;80.50
11497;DHT22;5805;51.542;7.230;2023-02-28T09:37:18;6.20;81.70
11497;DHT22;5805;51.542;7.230;2023-02-28T09:39:43;6.40;78.30
11497;DHT22;5805;51.542;7.230;2023-02-28T09:42:18;6.50;75.60
11497;DHT22;5805;51.542;7.230;2023-02-28T09:44:47;6.60;71.00
11497;DHT22;5805;51.542;7.230;2023-02-28T09:47:21;6.70;72.90
11497;DHT22;5805;51.542;7.230;2023-02-28T09:49:51;6.80;72.10
11497;DHT22;5805;51.542;7.230;2023-02-28T09:52:19;7.00;72.00
11497;DHT22;5805;51.542;7.230;2023-02-28T09:54:46;7.10;71.80
11497;DHT22;5805;51.542;7.230;2023-02-28T09:57:17;7.20;65.80
11497;DHT22;5805;51.542;7.230;2023-02-28T10:00:02;7.20;63.70
11497;DHT22;5805;51.542;7.230;2023-02-28T10:02:53;7.10;62.00
11497;DHT22;5805;51.542;7.230;2023-02-28T10:05:22;7.20;62.80
11497;DHT22;5805;51.542;7.230;2023-02-28T10:08:00;7.10;60.10
11497;DHT22;5805;51.542;7.230;2023-02-28T10:10:29;7.20;60.90
11497;DHT22;5805;51.542;7.230;2023-02-28T10:13:00;7.30;60.20
11497;DHT22;5805;51.542;7.230;2023-02-28T10:15:30;7.20;57.20
11497;DHT22;5805;51.542;7.230;2023-02-28T10:17:58;7.00;57.20
11497;DHT22;5805;51.542;7.230;2023-02-28T10:20:25;7.20;57.70
11497;DHT22;5805;51.542;7.230;2023-02-28T10:22:58;7.20;58.50
11497;DHT22;5805;51.542;7.230;2023-02-28T10:25:26;7.10;56.50
11497;DHT22;5805;51.542;7.230;2023-02-28T10:27:53;7.10;57.90
11497;DHT22;5805;51.542;7.230;2023-02-28T10:30:19;7.00;56.00
11497;DHT22;5805;51.542;7.230;2023-02-28T10:32:50;6.80;56.50
11497;DHT22;5805;51.542;7.230;2023-02-28T10:35:19;6.80;56.10
11497;DHT22;5805;51.542;7.230;2023-02-28T10:37:47;6.90;56.50
11497;DHT22;5805;51.542;7.230;2023-02-28T10:40:29;6.80;54.00
11497;DHT22;5805;51.542;7.230;2023-02-28T10:42:56;6.70;52.90
11497;DHT22;5805;51.542;7.230;2023-02-28T10:45:23;6.90;55.10
11497;DHT22;5805;51.542;7.230;2023-02-28T10:47:52;7.10;54.40
11497;DHT22;5805;51.542;7.230;2023-02-28T10:50:30;7.30;53.60
11497;DHT22;5805;51.542;7.230;2023-02-28T10:53:11;7.40;53.20
11497;DHT22;5805;51.542;7.230;2023-02-28T10:55:42;7.40;51.90
11497;DHT22;5805;51.542;7.230;2023-02-28T10:58:21;7.50;53.00
11497;DHT22;5805;51.542;7.230;2023-02-28T11:00:47;7.60;51.70
11497;DHT22;5805;51.542;7.230;2023-02-28T11:03:24;7.50;51.50
11497;DHT22;5805;51.542;7.230;2023-02-28T11:05:50;7.30;50.70
11497;DHT22;5805;51.542;7.230;2023-02-28T11:08:17;7.40;51.80
11497;DHT22;5805;51.542;7.230;2023-02-28T11:10:47;7.60;51.20
11497;DHT22;5805;51.542;7.230;2023-02-28T11:13:17;7.70;50.90
11497;DHT22;5805;51.542;7.230;2023-02-28T11:15:50;7.90;50.60
11497;DHT22;5805;51.542;7.230;2023-02-28T11:18:23;7.90;49.40
11497;DHT22;5805;51.542;7.230;2023-02-28T11:20:51;7.80;50.30
11497;DHT22;5805;51.542;7.230;2023-02-28T11:23:18;7.60;50.00
11497;DHT22;5805;51.542;7.230;2023-02-28T11:25:50;7.80;50.80
11497;DHT22;5805;51.542;7.230;2023-02-28T11:28:27;7.90;50.00
11497;DHT22;5805;51.542;7.230;2023-02-28T11:31:02;8.00;50.30
11497;DHT22;5805;51.542;7.230;2023-02-28T11:33:29;8.20;50.00
11497;DHT22;5805;51.542;7.230;2023-02-28T11:35:58;8.20;48.70
11497;DHT22;5805;51.542;7.230;2023-02-28T11:38:24;8.00;48.50
11497;DHT22;5805;51.542;7.230;2023-02-28T11:41:05;8.10;49.30
11497;DHT22;5805;51.542;7.230;2023-02-28T11:43:44;8.30;49.30
11497;DHT22;5805;51.542;7.230;2023-02-28T11:46:22;8.40;49.40
11497;DHT22;5805;51.542;7.230;2023-02-28T11:48:56;8.60;49.10
11497;DHT22;5805;51.542;7.230;2023-02-28T11:51:27;8.70;48.90
11497;DHT22;5805;51.542;7.230;2023-02-28T11:54:08;8.70;48.90
11497;DHT22;5805;51.542;7.230;2023-02-28T11:56:41;8.50;48.50
11497;DHT22;5805;51.542;7.230;2023-02-28T11:59:30;8.40;49.00
11497;DHT22;5805;51.542;7.230;2023-02-28T12:02:23;8.30;49.30
11497;DHT22;5805;51.542;7.230;2023-02-28T12:04:55;8.40;50.10
11497;DHT22;5805;51.542;7.230;2023-02-28T12:07:30;8.20;49.70
11497;DHT22;5805;51.542;7.230;2023-02-28T12:10:01;8.10;49.60
11497;DHT22;5805;51.542;7.230;2023-02-28T12:12:38;8.30;50.90
11497;DHT22;5805;51.542;7.230;2023-02-28T12:15:32;8.10;49.50
11497;DHT22;5805;51.542;7.230;2023-02-28T12:18:17;8.00;50.50
11497;DHT22;5805;51.542;7.230;2023-02-28T12:20:51;7.80;50.20
11497;DHT22;5805;51.542;7.230;2023-02-28T12:23:40;7.70;50.80
11497;DHT22;5805;51.542;7.230;2023-02-28T12:26:14;7.80;51.80
11497;DHT22;5805;51.542;7.230;2023-02-28T12:28:45;7.40;52.30
11497;DHT22;5805;51.542;7.230;2023-02-28T12:31:17;7.20;53.00
11497;DHT22;5805;51.542;7.230;2023-02-28T12:33:47;7.30;53.30
11497;DHT22;5805;51.542;7.230;2023-02-28T12:36:15;7.20;53.30
11497;DHT22;5805;51.542;7.230;2023-02-28T12:38:45;7.30;54.40
11497;DHT22;5805;51.542;7.230;2023-02-28T12:41:14;7.40;54.50
11497;DHT22;5805;51.542;7.230;2023-02-28T12:43:46;7.60;54.60
11497;DHT22;5805;51.542;7.230;2023-02-28T12:46:17;7.60;53.90
11497;DHT22;5805;51.542;7.230;2023-02-28T12:48:46;7.60;54.30
11497;DHT22;5805;51.542;7.230;2023-02-28T12:51:16;7.60;54.40
11497;DHT22;5805;51.542;7.230;2023-02-28T12:53:54;7.40;54.40
11497;DHT22;5805;51.542;7.230;2023-02-28T12:56:33;7.20;55.30
11497;DHT22;5805;51.542;7.230;2023-02-28T12:59:07;7.80;56.40
11497;DHT22;5805;51.542;7.230;2023-02-28T13:01:47;7.50;56.60
11497;DHT22;5805;51.542;7.230;2023-02-28T13:04:55;7.60;56.30
11497;DHT22;5805;51.542;7.230;2023-02-28T13:07:57;7.30;55.50
11497;DHT22;5805;51.542;7.230;2023-02-28T13:10:24;7.10;57.10
11497;DHT22;5805;51.542;7.230;2023-02-28T13:13:03;7.30;57.70
11497;DHT22;5805;51.542;7.230;2023-02-28T13:15:30;7.10;56.50
11497;DHT22;5805;51.542;7.230;2023-02-28T13:18:03;7.10;57.40
11497;DHT22;5805;51.542;7.230;2023-02-28T13:20:33;7.10;57.80
11497;DHT22;5805;51.542;7.230;2023-02-28T13:22:59;7.10;57.70
11497;DHT22;5805;51.542;7.230;2023-02-28T13:25:52;7.30;58.00
11497;DHT22;5805;51.542;7.230;2023-02-28T13:31:41;7.30;57.30
11497;DHT22;5805;51.542;7.230;2023-02-28T13:34:26;7.40;58.10
11497;DHT22;5805;51.542;7.230;2023-02-28T13:37:32;7.50;58.80
11497;DHT22;5805;51.542;7.230;2023-02-28T13:40:26;7.40;58.00
11497;DHT22;5805;51.542;7.230;2023-02-28T13:42:52;7.30;57.80
11497;DHT22;5805;51.542;7.230;2023-02-28T13:45:27;7.20;57.40
11497;DHT22;5805;51.542;7.230;2023-02-28T13:47:56;7.20;58.30
11497;DHT22;5805;51.542;7.230;2023-02-28T13:50:30;7.20;58.70
11497;DHT22;5805;51.542;7.230;2023-02-28T13:53:27;7.00;57.80
11497;DHT22;5805;51.542;7.230;2023-02-28T13:56:03;6.90;58.00
11497;DHT22;5805;51.542;7.230;2023-02-28T13:58:43;6.80;59.00
11497;DHT22;5805;51.542;7.230;2023-02-28T14:07:01;6.50;61.90
11497;DHT22;5805;51.542;7.230;2023-02-28T14:09:29;6.50;62.80
11497;DHT22;5805;51.542;7.230;2023-02-28T14:11:57;6.50;63.00
11497;DHT22;5805;51.542;7.230;2023-02-28T14:14:56;6.50;63.70
11497;DHT22;5805;51.542;7.230;2023-02-28T14:17:21;6.50;64.30
11497;DHT22;5805;51.542;7.230;2023-02-28T14:19:49;6.40;64.70
11497;DHT22;5805;51.542;7.230;2023-02-28T14:22:29;6.40;65.00
11497;DHT22;5805;51.542;7.230;2023-02-28T14:25:11;6.50;64.80
11497;DHT22;5805;51.542;7.230;2023-02-28T14:27:45;6.50;65.10
11497;DHT22;5805;51.542;7.230;2023-02-28T14:33:25;6.60;64.60
11497;DHT22;5805;51.542;7.230;2023-02-28T14:36:06;6.60;65.00
11497;DHT22;5805;51.542;7.230;2023-02-28T14:38:36;6.70;65.80
11497;DHT22;5805;51.542;7.230;2023-02-28T14:41:06;6.70;65.80
11497;DHT22;5805;51.542;7.230;2023-02-28T14:43:48;6.80;65.50
11497;DHT22;5805;51.542;7.230;2023-02-28T14:46:14;6.80;62.60
11497;DHT22;5805;51.542;7.230;2023-02-28T14:48:40;6.70;63.00
11497;DHT22;5805;51.542;7.230;2023-02-28T14:51:07;6.70;63.10
11497;DHT22;5805;51.542;7.230;2023-02-28T14:53:36;6.70;63.50
11497;DHT22;5805;51.542;7.230;2023-02-28T14:56:03;6.90;63.90
11497;DHT22;5805;51.542;7.230;2023-02-28T14:58:30;6.80;63.60
11497;DHT22;5805;51.542;7.230;2023-02-28T15:30:56;5.90;81.80
11497;DHT22;5805;51.542;7.230;2023-02-28T15:33:24;6.00;81.30
11497;DHT22;5805;51.542;7.230;2023-02-28T15:35:50;6.20;81.90
11497;DHT22;5805;51.542;7.230;2023-02-28T15:38:21;6.30;81.10
11497;DHT22;5805;51.542;7.230;2023-02-28T15:40:50;6.40;79.60
11497;DHT22;5805;51.542;7.230;2023-02-28T15:43:18;6.30;77.30
11497;DHT22;5805;51.542;7.230;2023-02-28T15:45:49;6.30;75.70
11497;DHT22;5805;51.542;7.230;2023-02-28T15:48:27;6.20;76.20
11497;DHT22;5805;51.542;7.230;2023-02-28T15:50:54;6.20;77.00
11497;DHT22;5805;51.542;7.230;2023-02-28T15:53:23;6.30;77.50
11497;DHT22;5805;51.542;7.230;2023-02-28T15:55:54;6.30;76.40
11497;DHT22;5805;51.542;7.230;2023-02-28T15:58:22;6.40;75.90
11497;DHT22;5805;51.542;7.230;2023-02-28T16:03:45;6.30;74.70
11497;DHT22;5805;51.542;7.230;2023-02-28T16:06:33;6.30;74.70
11497;DHT22;5805;51.542;7.230;2023-02-28T16:08:59;6.30;75.60
11497;DHT22;5805;51.542;7.230;2023-02-28T16:11:25;6.40;74.00
11497;DHT22;5805;51.542;7.230;2023-02-28T16:13:51;6.30;73.70
11497;DHT22;5805;51.542;7.230;2023-02-28T16:16:18;6.40;74.70
11497;DHT22;5805;51.542;7.230;2023-02-28T16:18:46;6.40;71.70
11497;DHT22;5805;51.542;7.230;2023-02-28T16:21:12;6.40;72.60
11497;DHT22;5805;51.542;7.230;2023-02-28T16:23:38;6.40;73.00
11497;DHT22;5805;51.542;7.230;2023-02-28T16:26:04;6.30;72.50
11497;DHT22;5805;51.542;7.230;2023-02-28T16:28:32;6.20;72.90
11497;DHT22;5805;51.542;7.230;2023-02-28T16:30:59;6.10;74.50
11497;DHT22;5805;51.542;7.230;2023-02-28T16:33:25;6.20;75.20
11497;DHT22;5805;51.542;7.230;2023-02-28T16:35:52;6.20;73.70
11497;DHT22;5805;51.542;7.230;2023-02-28T16:38:18;6.20;74.50
11497;DHT22;5805;51.542;7.230;2023-02-28T16:40:44;6.20;75.00
11497;DHT22;5805;51.542;7.230;2023-02-28T16:43:14;6.00;74.80
11497;DHT22;5805;51.542;7.230;2023-02-28T16:45:40;6.00;75.90
11497;DHT22;5805;51.542;7.230;2023-02-28T16:48:11;5.90;76.30
11497;DHT22;5805;51.542;7.230;2023-02-28T16:50:37;5.80;77.10
11497;DHT22;5805;51.542;7.230;2023-02-28T16:53:04;5.80;78.20
11497;DHT22;5805;51.542;7.230;2023-02-28T16:55:30;5.80;79.20
11497;DHT22;5805;51.542;7.230;2023-02-28T16:57:59;6.20;80.50
11497;DHT22;5805;51.542;7.230;2023-02-28T17:00:26;5.80;80.30
11497;DHT22;5805;51.542;7.230;2023-02-28T17:02:52;5.80;80.60
11497;DHT22;5805;51.542;7.230;2023-02-28T17:05:17;5.80;80.60
11497;DHT22;5805;51.542;7.230;2023-02-28T17:07:44;5.80;80.80